SAS105 EDDF-LFPG
Flight info
| Callsign | SAS105 |
|---|---|
| Flight time | N/A |
| Altitude | 30000 |
| Route | SOBRA2L/18 SOBRA Y180 DIK UN857 TOLVU DCT RAPOR DCT VEDUS |
| Aircraft | B77W/H-SDE1E2E3FGHIJ2J3J4J5M1RWXY/LB1D1 |
Departure
| Time | N/A |
|---|---|
| Airport | Frankfurt Main Airport (EDDF) |
Arrival
| Time | 2026-05-08 07:39 |
|---|---|
| Airport | Charles de Gaulle International Airport (LFPG) |
| Time | Latitude | Longitude | Altitude | Speed | Heading |
|---|---|---|---|---|---|
| 2026-05-08 07:06 | 49.80158 | 5.99975 | 30081 ft | 493 kts | 234° |
| 2026-05-08 07:06 | 49.78163 | 5.95663 | 30091 ft | 492 kts | 234° |
| 2026-05-08 07:07 | 49.74486 | 5.86751 | 30097 ft | 492 kts | 242° |
| 2026-05-08 07:07 | 49.71784 | 5.77033 | 30085 ft | 492 kts | 250° |
| 2026-05-08 07:08 | 49.69513 | 5.67046 | 30080 ft | 492 kts | 250° |
| 2026-05-08 07:08 | 49.67389 | 5.57890 | 30080 ft | 492 kts | 249° |
| 2026-05-08 07:09 | 49.65062 | 5.48021 | 30061 ft | 492 kts | 249° |
| 2026-05-08 07:09 | 49.62712 | 5.38097 | 30084 ft | 492 kts | 249° |
| 2026-05-08 07:10 | 49.60538 | 5.28077 | 30070 ft | 493 kts | 253° |
| 2026-05-08 07:10 | 49.59346 | 5.17672 | 30071 ft | 494 kts | 263° |
| 2026-05-08 07:11 | 49.59151 | 5.07085 | 30075 ft | 495 kts | 270° |
| 2026-05-08 07:11 | 49.59296 | 4.98253 | 30073 ft | 496 kts | 270° |
| 2026-05-08 07:12 | 49.59441 | 4.85834 | 30071 ft | 496 kts | 269° |
| 2026-05-08 07:12 | 49.59510 | 4.76997 | 30072 ft | 495 kts | 269° |
| 2026-05-08 07:13 | 49.59564 | 4.66396 | 30059 ft | 487 kts | 269° |
| 2026-05-08 07:13 | 49.59584 | 4.61257 | 29633 ft | 473 kts | 268° |
| 2026-05-08 07:13 | 49.59601 | 4.56205 | 28653 ft | 469 kts | 268° |
| 2026-05-08 07:14 | 49.59616 | 4.51204 | 27745 ft | 464 kts | 268° |
| 2026-05-08 07:14 | 49.59629 | 4.46243 | 26844 ft | 461 kts | 268° |
| 2026-05-08 07:14 | 49.59640 | 4.41322 | 25974 ft | 457 kts | 269° |
| 2026-05-08 07:14 | 49.59650 | 4.36496 | 25143 ft | 454 kts | 269° |
| 2026-05-08 07:15 | 49.59657 | 4.31640 | 24330 ft | 451 kts | 269° |
| 2026-05-08 07:15 | 49.59663 | 4.26816 | 23558 ft | 448 kts | 269° |
| 2026-05-08 07:15 | 49.59668 | 4.22045 | 22699 ft | 443 kts | 269° |
| 2026-05-08 07:15 | 49.59671 | 4.17316 | 21881 ft | 439 kts | 268° |
| 2026-05-08 07:16 | 49.59671 | 4.12632 | 21131 ft | 434 kts | 268° |
| 2026-05-08 07:16 | 49.59508 | 4.08070 | 20408 ft | 421 kts | 258° |
| 2026-05-08 07:16 | 49.58561 | 4.03859 | 19769 ft | 413 kts | 240° |
| 2026-05-08 07:16 | 49.57023 | 4.00193 | 19155 ft | 404 kts | 234° |
| 2026-05-08 07:17 | 49.55458 | 3.96624 | 18570 ft | 400 kts | 235° |
| 2026-05-08 07:17 | 49.53927 | 3.93058 | 17916 ft | 397 kts | 236° |
| 2026-05-08 07:17 | 49.52425 | 3.89521 | 17245 ft | 393 kts | 236° |
| 2026-05-08 07:17 | 49.50940 | 3.86004 | 16634 ft | 390 kts | 236° |
| 2026-05-08 07:18 | 49.49510 | 3.82620 | 16025 ft | 386 kts | 236° |
| 2026-05-08 07:18 | 49.48053 | 3.79166 | 15410 ft | 382 kts | 237° |
| 2026-05-08 07:18 | 49.46919 | 3.75512 | 14811 ft | 379 kts | 252° |
| 2026-05-08 07:18 | 49.46347 | 3.71582 | 14275 ft | 375 kts | 257° |
| 2026-05-08 07:19 | 49.45781 | 3.67738 | 13696 ft | 372 kts | 255° |
| 2026-05-08 07:19 | 49.45148 | 3.63912 | 13256 ft | 364 kts | 254° |
| 2026-05-08 07:19 | 49.44524 | 3.60210 | 13085 ft | 351 kts | 255° |
| 2026-05-08 07:19 | 49.43965 | 3.56568 | 13083 ft | 351 kts | 256° |
| 2026-05-08 07:20 | 49.43416 | 3.52896 | 13073 ft | 352 kts | 256° |
| 2026-05-08 07:20 | 49.42873 | 3.49235 | 13069 ft | 351 kts | 256° |
| 2026-05-08 07:20 | 49.42334 | 3.45589 | 13065 ft | 350 kts | 256° |
| 2026-05-08 07:20 | 49.41797 | 3.41953 | 13062 ft | 349 kts | 256° |
| 2026-05-08 07:21 | 49.41262 | 3.38321 | 13077 ft | 348 kts | 256° |
| 2026-05-08 07:21 | 49.40726 | 3.34682 | 13077 ft | 348 kts | 256° |
| 2026-05-08 07:21 | 49.40191 | 3.31059 | 13072 ft | 349 kts | 256° |
| 2026-05-08 07:21 | 49.39654 | 3.27425 | 13078 ft | 349 kts | 256° |
| 2026-05-08 07:22 | 49.39392 | 3.25651 | 13079 ft | 349 kts | 256° |
| 2026-05-08 07:22 | 49.38861 | 3.22059 | 13067 ft | 349 kts | 256° |
| 2026-05-08 07:23 | 49.38323 | 3.18427 | 13074 ft | 349 kts | 256° |
| 2026-05-08 07:23 | 49.37785 | 3.14794 | 13077 ft | 349 kts | 256° |
| 2026-05-08 07:23 | 49.37246 | 3.11154 | 13081 ft | 350 kts | 256° |
| 2026-05-08 07:23 | 49.36705 | 3.07506 | 13071 ft | 350 kts | 256° |
| 2026-05-08 07:24 | 49.36162 | 3.03859 | 13075 ft | 351 kts | 256° |
| 2026-05-08 07:24 | 49.35622 | 3.00225 | 12835 ft | 349 kts | 256° |
| 2026-05-08 07:24 | 49.35082 | 2.96598 | 12376 ft | 347 kts | 256° |
| 2026-05-08 07:24 | 49.34546 | 2.92992 | 11844 ft | 345 kts | 256° |
| 2026-05-08 07:25 | 49.34011 | 2.89407 | 11329 ft | 344 kts | 256° |
| 2026-05-08 07:25 | 49.33478 | 2.85840 | 10817 ft | 342 kts | 257° |
| 2026-05-08 07:25 | 49.32417 | 2.78748 | 10145 ft | 345 kts | 257° |
| 2026-05-08 07:26 | 49.31888 | 2.75211 | 10082 ft | 343 kts | 257° |
| 2026-05-08 07:26 | 49.31357 | 2.71667 | 10076 ft | 339 kts | 257° |
| 2026-05-08 07:26 | 49.30830 | 2.68156 | 10069 ft | 338 kts | 257° |
| 2026-05-08 07:26 | 49.30160 | 2.64719 | 10075 ft | 339 kts | 250° |
| 2026-05-08 07:27 | 49.29288 | 2.61345 | 10082 ft | 338 kts | 248° |
| 2026-05-08 07:27 | 49.28402 | 2.58088 | 10039 ft | 324 kts | 248° |
| 2026-05-08 07:27 | 49.27545 | 2.54967 | 9938 ft | 311 kts | 248° |
| 2026-05-08 07:27 | 49.26996 | 2.52974 | 9884 ft | 303 kts | 248° |
| 2026-05-08 07:28 | 49.26125 | 2.49823 | 9752 ft | 291 kts | 248° |
| 2026-05-08 07:28 | 49.25361 | 2.47072 | 9570 ft | 283 kts | 248° |
| 2026-05-08 07:28 | 49.24593 | 2.44304 | 9308 ft | 279 kts | 248° |
| 2026-05-08 07:29 | 49.23844 | 2.41609 | 8951 ft | 279 kts | 248° |
| 2026-05-08 07:29 | 49.23086 | 2.38878 | 8582 ft | 279 kts | 248° |
| 2026-05-08 07:29 | 49.22327 | 2.36147 | 8228 ft | 278 kts | 248° |
| 2026-05-08 07:29 | 49.21568 | 2.33420 | 7878 ft | 278 kts | 248° |
| 2026-05-08 07:30 | 49.20814 | 2.30710 | 7536 ft | 277 kts | 248° |
| 2026-05-08 07:30 | 49.20057 | 2.27993 | 7188 ft | 277 kts | 248° |
| 2026-05-08 07:30 | 49.19303 | 2.25285 | 6846 ft | 277 kts | 248° |
| 2026-05-08 07:30 | 49.18551 | 2.22585 | 6533 ft | 276 kts | 248° |
| 2026-05-08 07:31 | 49.17809 | 2.19922 | 6204 ft | 275 kts | 247° |
| 2026-05-08 07:31 | 49.17065 | 2.17256 | 5933 ft | 272 kts | 247° |
| 2026-05-08 07:31 | 49.16304 | 2.14624 | 5572 ft | 267 kts | 242° |
| 2026-05-08 07:31 | 49.15081 | 2.12491 | 5064 ft | 272 kts | 213° |
| 2026-05-08 07:32 | 49.13332 | 2.11517 | 4764 ft | 266 kts | 185° |
| 2026-05-08 07:32 | 49.11492 | 2.11461 | 4419 ft | 265 kts | 177° |
| 2026-05-08 07:32 | 49.09660 | 2.11577 | 4115 ft | 263 kts | 176° |
| 2026-05-08 07:32 | 49.07867 | 2.11710 | 4040 ft | 252 kts | 176° |
| 2026-05-08 07:33 | 49.06185 | 2.12034 | 3976 ft | 235 kts | 159° |
| 2026-05-08 07:33 | 49.04902 | 2.13398 | 3989 ft | 224 kts | 128° |
| 2026-05-08 07:33 | 49.03983 | 2.15322 | 4003 ft | 225 kts | 125° |
| 2026-05-08 07:33 | 49.03073 | 2.17237 | 3985 ft | 221 kts | 126° |
| 2026-05-08 07:34 | 49.02184 | 2.19096 | 3976 ft | 212 kts | 126° |
| 2026-05-08 07:34 | 49.01346 | 2.20901 | 3978 ft | 205 kts | 117° |
| 2026-05-08 07:34 | 49.01021 | 2.22975 | 4027 ft | 204 kts | 91° |
| 2026-05-08 07:34 | 49.01037 | 2.25054 | 3953 ft | 213 kts | 88° |
| 2026-05-08 07:35 | 49.01120 | 2.27341 | 3654 ft | 215 kts | 86° |
| 2026-05-08 07:35 | 49.01236 | 2.29573 | 3379 ft | 208 kts | 85° |
| 2026-05-08 07:35 | 49.01352 | 2.31705 | 3093 ft | 196 kts | 85° |
| 2026-05-08 07:35 | 49.01459 | 2.33695 | 2823 ft | 181 kts | 85° |
| 2026-05-08 07:36 | 49.01561 | 2.35593 | 2587 ft | 179 kts | 85° |
| 2026-05-08 07:36 | 49.01664 | 2.37481 | 2345 ft | 179 kts | 86° |
| 2026-05-08 07:36 | 49.01761 | 2.39323 | 2129 ft | 171 kts | 86° |
| 2026-05-08 07:36 | 49.01859 | 2.41086 | 1881 ft | 161 kts | 86° |
| 2026-05-08 07:37 | 49.01945 | 2.42724 | 1658 ft | 150 kts | 86° |
| 2026-05-08 07:37 | 49.02031 | 2.44318 | 1467 ft | 153 kts | 86° |
| 2026-05-08 07:37 | 49.02117 | 2.45888 | 1284 ft | 146 kts | 85° |
| 2026-05-08 07:37 | 49.02194 | 2.47441 | 1085 ft | 148 kts | 85° |
| 2026-05-08 07:38 | 49.02283 | 2.49015 | 845 ft | 149 kts | 84° |
| 2026-05-08 07:38 | 49.02376 | 2.50572 | 663 ft | 147 kts | 84° |
| 2026-05-08 07:38 | 49.02451 | 2.52138 | 458 ft | 148 kts | 84° |
| 2026-05-08 07:38 | 49.02547 | 2.53684 | 363 ft | 139 kts | 86° |
| 2026-05-08 07:39 | 49.02603 | 2.54857 | 363 ft | 68 kts | 85° |
| 2026-05-08 07:39 | 49.02535 | 2.55432 | 365 ft | 34 kts | 121° |
| 2026-05-08 07:39 | 49.02473 | 2.55575 | 366 ft | 12 kts | 139° |
| 2026-05-08 07:39 | 49.02410 | 2.55612 | 362 ft | 0 kts | 172° |
| 2026-05-08 07:40 | 49.02406 | 2.55613 | 363 ft | 1 kts | 172° |
| 2026-05-08 07:40 | 49.02390 | 2.55616 | 359 ft | 5 kts | 173° |
| 2026-05-08 07:40 | 49.02261 | 2.55633 | 360 ft | 26 kts | 175° |
| 2026-05-08 07:40 | 49.02084 | 2.55654 | 366 ft | 26 kts | 175° |
| 2026-05-08 07:41 | 49.01922 | 2.55665 | 363 ft | 20 kts | 193° |
| 2026-05-08 07:41 | 49.01885 | 2.55525 | 365 ft | 15 kts | 268° |
| 2026-05-08 07:41 | 49.01878 | 2.55362 | 363 ft | 15 kts | 264° |
| 2026-05-08 07:41 | 49.01866 | 2.55200 | 364 ft | 15 kts | 264° |
| 2026-05-08 07:42 | 49.01855 | 2.55038 | 359 ft | 15 kts | 265° |
| 2026-05-08 07:42 | 49.01849 | 2.54875 | 359 ft | 15 kts | 266° |
| 2026-05-08 07:42 | 49.01843 | 2.54712 | 365 ft | 15 kts | 266° |
| 2026-05-08 07:42 | 49.01832 | 2.54549 | 359 ft | 15 kts | 264° |
| 2026-05-08 07:43 | 49.01821 | 2.54387 | 361 ft | 15 kts | 264° |
| 2026-05-08 07:43 | 49.01810 | 2.54227 | 364 ft | 15 kts | 264° |
| 2026-05-08 07:43 | 49.01802 | 2.54064 | 366 ft | 15 kts | 265° |
| 2026-05-08 07:43 | 49.01777 | 2.53906 | 363 ft | 15 kts | 248° |
| 2026-05-08 07:44 | 49.01712 | 2.53774 | 366 ft | 16 kts | 223° |
| 2026-05-08 07:44 | 49.01625 | 2.53670 | 366 ft | 16 kts | 211° |
| 2026-05-08 07:44 | 49.01518 | 2.53618 | 359 ft | 16 kts | 189° |
| 2026-05-08 07:44 | 49.01405 | 2.53611 | 364 ft | 16 kts | 174° |
| 2026-05-08 07:45 | 49.01325 | 2.53670 | 368 ft | 3 kts | 126° |
| 2026-05-08 07:45 | 49.01319 | 2.53707 | 364 ft | 4 kts | 104° |
| 2026-05-08 07:45 | 49.01310 | 2.53755 | 365 ft | 5 kts | 106° |
| 2026-05-08 07:45 | 49.01301 | 2.53800 | 361 ft | 0 kts | 107° |